createdAt,value
2022-08-26T00:00:25.067Z,2.40
2022-08-26T00:02:33.722Z,2.20
2022-08-26T00:04:42.235Z,2.33
2022-08-26T00:06:51.226Z,2.80
2022-08-26T00:08:59.855Z,3.70
2022-08-26T00:11:08.735Z,2.27
2022-08-26T00:13:19.501Z,2.40
2022-08-26T00:15:29.635Z,2.00
2022-08-26T00:17:40.317Z,2.53
2022-08-26T00:19:48.971Z,1.93
2022-08-26T00:21:59.497Z,1.93
2022-08-26T00:24:12.391Z,2.63
2022-08-26T00:26:20.962Z,2.57
2022-08-26T00:28:29.589Z,1.97
2022-08-26T00:30:39.882Z,2.70
2022-08-26T00:32:49.073Z,2.67
2022-08-26T00:34:57.711Z,1.90
2022-08-26T00:37:08.966Z,2.03
2022-08-26T00:39:20.016Z,3.30
2022-08-26T00:41:28.921Z,2.50
2022-08-26T00:43:47.287Z,2.93
2022-08-26T00:46:02.440Z,2.53
2022-08-26T00:48:11.587Z,2.20
2022-08-26T00:50:22.118Z,2.60
2022-08-26T00:52:31.201Z,2.70
2022-08-26T00:54:42.310Z,2.87
2022-08-26T00:56:57.699Z,2.20
2022-08-26T00:59:09.806Z,2.50
2022-08-26T01:01:23.003Z,2.67
2022-08-26T01:03:33.642Z,3.10
2022-08-26T01:05:42.918Z,2.10
2022-08-26T01:07:52.101Z,2.90
2022-08-26T01:10:01.030Z,3.50
2022-08-26T01:12:09.667Z,2.27
2022-08-26T01:14:21.176Z,3.37
2022-08-26T01:16:33.282Z,2.53
2022-08-26T01:18:43.120Z,2.40
2022-08-26T01:20:57.699Z,2.20
2022-08-26T01:23:09.453Z,2.23
2022-08-26T01:25:19.376Z,3.50
2022-08-26T01:27:32.419Z,2.20
2022-08-26T01:29:42.773Z,2.63
2022-08-26T01:31:55.289Z,2.30
2022-08-26T01:34:07.863Z,3.60
2022-08-26T01:36:17.675Z,1.97
2022-08-26T01:38:31.539Z,2.73
2022-08-26T01:40:43.790Z,2.37
2022-08-26T01:42:52.432Z,2.10
2022-08-26T01:45:05.556Z,2.10
2022-08-26T01:47:15.159Z,2.17
2022-08-26T01:49:24.250Z,2.10
2022-08-26T01:51:37.283Z,2.50
2022-08-26T01:53:47.621Z,2.00
2022-08-26T01:55:58.248Z,2.27
2022-08-26T01:58:08.361Z,4.00
2022-08-26T02:00:18.811Z,2.90
2022-08-26T02:02:27.819Z,2.20
2022-08-26T02:04:38.466Z,2.30
2022-08-26T02:06:47.278Z,2.73
2022-08-26T02:08:58.260Z,1.83
2022-08-26T02:11:06.925Z,1.90
2022-08-26T02:13:15.399Z,1.80
2022-08-26T02:15:24.345Z,1.97
2022-08-26T02:17:36.235Z,1.97
2022-08-26T02:19:48.368Z,2.27
2022-08-26T02:21:58.009Z,2.60
2022-08-26T02:24:12.772Z,2.30
2022-08-26T02:26:24.637Z,2.70
2022-08-26T02:28:40.758Z,1.80
2022-08-26T02:30:49.692Z,2.40
2022-08-26T02:33:03.804Z,2.40
2022-08-26T02:35:13.703Z,2.77
2022-08-26T02:37:29.988Z,2.10
2022-08-26T02:39:40.948Z,2.07
2022-08-26T02:41:49.426Z,2.50
2022-08-26T02:43:57.966Z,2.10
2022-08-26T02:46:07.485Z,2.87
2022-08-26T02:48:17.122Z,2.00
2022-08-26T02:50:29.136Z,2.10
2022-08-26T02:52:37.724Z,2.00
2022-08-26T02:54:50.621Z,1.90
2022-08-26T02:56:59.491Z,2.53
2022-08-26T02:59:08.621Z,2.03
2022-08-26T03:01:24.974Z,2.20
2022-08-26T03:03:33.581Z,1.83
2022-08-26T03:05:42.491Z,2.77
2022-08-26T03:07:51.582Z,2.37
2022-08-26T03:10:01.778Z,1.90
2022-08-26T03:12:16.878Z,2.47
2022-08-26T03:14:25.944Z,2.00
2022-08-26T03:16:35.373Z,3.47
2022-08-26T03:18:52.229Z,2.17
2022-08-26T03:21:01.405Z,2.13
2022-08-26T03:23:11.023Z,2.07
2022-08-26T03:25:21.662Z,1.60
2022-08-26T03:27:30.185Z,1.97
2022-08-26T03:29:59.026Z,1.87
2022-08-26T03:32:07.645Z,3.63
2022-08-26T03:34:16.123Z,1.83
2022-08-26T03:36:24.687Z,3.67
2022-08-26T03:38:33.558Z,2.03
2022-08-26T03:40:44.666Z,2.20
2022-08-26T03:42:53.188Z,3.17
2022-08-26T03:45:01.691Z,2.00
2022-08-26T03:47:10.152Z,1.90
2022-08-26T03:49:18.667Z,3.40
2022-08-26T03:51:27.222Z,2.70
2022-08-26T03:53:35.715Z,2.60
2022-08-26T03:55:46.606Z,4.00
2022-08-26T03:57:55.561Z,2.07
2022-08-26T04:00:04.336Z,2.93
2022-08-26T04:02:12.946Z,2.90
2022-08-26T04:04:22.897Z,2.37
2022-08-26T04:06:33.863Z,2.37
2022-08-26T04:08:42.515Z,2.47
2022-08-26T04:10:52.393Z,2.47
2022-08-26T04:13:01.207Z,2.17
2022-08-26T04:15:12.172Z,2.30
2022-08-26T04:17:25.069Z,3.33
2022-08-26T04:19:33.857Z,2.10
2022-08-26T04:21:42.721Z,2.20
2022-08-26T04:23:51.493Z,2.20
2022-08-26T04:26:03.736Z,2.27
2022-08-26T04:28:16.045Z,2.30
2022-08-26T04:30:24.561Z,2.33
2022-08-26T04:32:34.074Z,2.53
2022-08-26T04:34:45.071Z,2.50
2022-08-26T04:36:53.615Z,4.33
2022-08-26T04:39:03.119Z,2.87
2022-08-26T04:41:15.589Z,2.40
2022-08-26T04:43:28.838Z,2.60
2022-08-26T04:45:37.984Z,2.93
2022-08-26T04:47:47.866Z,2.27
2022-08-26T04:49:56.879Z,6.60
2022-08-26T04:52:06.324Z,3.20
2022-08-26T04:54:16.614Z,2.00
2022-08-26T04:56:29.138Z,2.40
2022-08-26T04:58:37.747Z,2.53
2022-08-26T05:00:47.006Z,2.53
2022-08-26T05:02:55.651Z,4.50
2022-08-26T05:05:04.749Z,4.43
2022-08-26T05:07:13.272Z,2.70
2022-08-26T05:09:21.841Z,2.20
2022-08-26T05:11:31.765Z,2.87
2022-08-26T05:13:43.425Z,4.13
2022-08-26T05:15:54.272Z,4.10
2022-08-26T05:18:03.924Z,2.93
2022-08-26T05:20:15.341Z,2.97
2022-08-26T05:22:23.854Z,4.17
2022-08-26T05:24:33.759Z,3.00
2022-08-26T05:26:44.656Z,2.70
2022-08-26T05:28:54.736Z,2.23
2022-08-26T05:31:03.817Z,2.60
2022-08-26T05:33:12.713Z,3.60
2022-08-26T05:35:24.029Z,3.33
2022-08-26T05:37:35.369Z,3.37
2022-08-26T05:39:50.978Z,2.60
2022-08-26T05:42:02.343Z,12.87
2022-08-26T05:44:14.021Z,5.10
2022-08-26T05:46:22.679Z,2.23
2022-08-26T05:48:31.187Z,5.03
2022-08-26T05:50:39.982Z,3.40
2022-08-26T05:52:48.516Z,3.27
2022-08-26T05:54:57.859Z,5.30
2022-08-26T05:57:08.052Z,4.70
2022-08-26T05:59:16.764Z,4.10
2022-08-26T06:01:30.467Z,2.70
2022-08-26T06:03:45.025Z,3.43
2022-08-26T06:05:57.383Z,2.50
2022-08-26T06:08:15.296Z,3.53
2022-08-26T06:10:32.650Z,2.90
2022-08-26T06:12:42.877Z,3.20
2022-08-26T06:14:52.763Z,4.10
2022-08-26T06:17:03.831Z,2.97
2022-08-26T06:19:13.050Z,3.53
2022-08-26T06:21:23.285Z,2.50
2022-08-26T06:23:49.480Z,4.60
2022-08-26T06:25:58.027Z,3.60
2022-08-26T06:28:08.567Z,3.70
2022-08-26T06:30:17.734Z,3.90
2022-08-26T06:32:27.431Z,7.23
2022-08-26T06:34:36.014Z,5.10
2022-08-26T06:36:46.132Z,4.60
2022-08-26T06:38:55.442Z,4.20
2022-08-26T06:41:03.916Z,3.50
2022-08-26T06:43:22.106Z,3.40
2022-08-26T06:45:31.862Z,3.47
2022-08-26T06:47:40.450Z,3.90
2022-08-26T06:49:48.986Z,3.40
2022-08-26T06:51:59.567Z,4.73
2022-08-26T06:54:09.269Z,3.10
2022-08-26T06:56:19.505Z,3.30
2022-08-26T06:58:29.495Z,3.27
2022-08-26T07:00:38.403Z,3.47
2022-08-26T07:02:50.192Z,3.40
2022-08-26T07:04:59.034Z,5.37
2022-08-26T07:07:07.522Z,3.17
2022-08-26T07:09:18.583Z,2.97
2022-08-26T07:11:27.187Z,2.50
2022-08-26T07:13:38.186Z,3.10
2022-08-26T07:15:46.692Z,2.53
2022-08-26T07:18:01.580Z,3.20
2022-08-26T07:20:11.609Z,3.47
2022-08-26T07:22:20.098Z,3.40
2022-08-26T07:24:29.530Z,2.70
2022-08-26T07:26:38.057Z,2.80
2022-08-26T07:28:48.759Z,3.00
2022-08-26T07:30:57.410Z,2.53
2022-08-26T07:33:07.005Z,3.00
2022-08-26T07:35:17.093Z,3.50
2022-08-26T07:37:25.831Z,2.90
2022-08-26T07:39:34.731Z,3.00
2022-08-26T07:41:47.087Z,2.57
2022-08-26T07:43:57.180Z,3.27
2022-08-26T07:46:06.807Z,3.20
2022-08-26T07:48:15.323Z,2.60
2022-08-26T07:50:49.224Z,3.20
2022-08-26T07:52:53.296Z,2.77
2022-08-26T07:55:03.014Z,2.73
2022-08-26T07:57:12.776Z,2.80
2022-08-26T07:59:23.406Z,2.63
2022-08-26T08:01:33.121Z,3.07
2022-08-26T08:03:41.822Z,3.00
2022-08-26T08:05:50.359Z,3.27
2022-08-26T08:08:17.335Z,2.93
2022-08-26T08:10:28.825Z,2.90
2022-08-26T08:12:37.316Z,3.47
2022-08-26T08:14:48.457Z,2.87
2022-08-26T08:16:57.057Z,2.70
2022-08-26T08:19:05.631Z,2.87
2022-08-26T08:21:24.078Z,3.00
2022-08-26T08:23:33.043Z,2.77
2022-08-26T08:25:41.554Z,2.57
2022-08-26T08:27:50.494Z,3.83
2022-08-26T08:30:00.479Z,2.70
2022-08-26T08:32:11.466Z,2.90
2022-08-26T08:34:23.882Z,2.57
2022-08-26T08:36:35.986Z,3.33
2022-08-26T08:38:45.333Z,2.60
2022-08-26T08:40:54.054Z,2.80
2022-08-26T08:43:06.919Z,2.27
2022-08-26T08:45:20.251Z,3.00
2022-08-26T08:47:32.145Z,2.33
2022-08-26T08:49:40.924Z,2.77
2022-08-26T08:51:52.236Z,2.50
2022-08-26T08:54:01.775Z,2.43
2022-08-26T08:56:14.077Z,2.30
2022-08-26T08:58:25.326Z,2.53
2022-08-26T09:00:39.829Z,2.50
2022-08-26T09:02:52.892Z,2.33
2022-08-26T09:05:05.669Z,2.43
2022-08-26T09:07:15.814Z,2.57
2022-08-26T09:09:32.530Z,2.60
2022-08-26T09:11:40.989Z,2.47
2022-08-26T09:13:51.295Z,2.50
2022-08-26T09:16:06.810Z,2.23
2022-08-26T09:18:25.167Z,2.70
2022-08-26T09:20:40.586Z,2.23
2022-08-26T09:22:49.664Z,2.47
2022-08-26T09:24:58.782Z,4.03
2022-08-26T09:27:07.879Z,2.87
2022-08-26T09:29:25.664Z,2.27
2022-08-26T09:31:36.154Z,2.37
2022-08-26T09:33:45.436Z,2.57
2022-08-26T09:35:58.011Z,3.00
2022-08-26T09:38:21.810Z,1.90
2022-08-26T09:40:34.529Z,2.10
2022-08-26T09:42:43.699Z,2.30
2022-08-26T09:44:57.017Z,2.17
2022-08-26T09:47:08.888Z,2.20
2022-08-26T09:49:29.137Z,3.97
2022-08-26T09:51:41.368Z,2.20
2022-08-26T09:53:52.629Z,2.47
2022-08-26T09:56:22.440Z,2.40
2022-08-26T09:58:35.331Z,2.80
2022-08-26T10:00:56.528Z,2.67
2022-08-26T10:03:08.920Z,2.37
2022-08-26T10:05:19.169Z,2.03
2022-08-26T10:07:44.031Z,2.10
2022-08-26T10:09:54.808Z,2.17
2022-08-26T10:12:06.352Z,3.17
2022-08-26T10:14:17.694Z,2.03
2022-08-26T10:16:29.919Z,1.93
2022-08-26T10:18:42.285Z,2.10
2022-08-26T10:20:56.577Z,1.90
2022-08-26T10:23:08.157Z,2.30
2022-08-26T10:25:18.159Z,2.10
2022-08-26T10:27:29.752Z,2.10
2022-08-26T10:29:40.759Z,2.07
2022-08-26T10:31:52.328Z,2.70
2022-08-26T10:34:02.331Z,2.10
2022-08-26T10:36:42.938Z,1.83
2022-08-26T10:39:01.972Z,1.90
2022-08-26T10:41:13.149Z,2.00
2022-08-26T10:43:25.788Z,2.70
2022-08-26T10:45:35.441Z,2.20
2022-08-26T10:47:47.003Z,3.00
2022-08-26T10:50:03.372Z,2.27
2022-08-26T10:52:16.447Z,2.30
2022-08-26T10:54:29.310Z,2.60
2022-08-26T10:56:42.232Z,2.20
2022-08-26T10:58:55.339Z,2.20
2022-08-26T11:01:25.271Z,2.83
2022-08-26T11:03:39.008Z,2.10
2022-08-26T11:06:08.852Z,2.30
2022-08-26T11:08:30.827Z,2.60
2022-08-26T11:10:58.861Z,2.23
2022-08-26T11:13:09.136Z,2.17
2022-08-26T11:15:32.579Z,2.27
2022-08-26T11:18:00.040Z,2.13
2022-08-26T11:20:13.525Z,2.10
2022-08-26T11:22:27.789Z,2.47
2022-08-26T11:24:47.101Z,2.10
2022-08-26T11:26:56.688Z,2.77
2022-08-26T11:29:12.097Z,2.13
2022-08-26T11:31:37.047Z,2.20
2022-08-26T11:33:49.516Z,2.43
2022-08-26T11:35:59.708Z,2.30
2022-08-26T11:38:20.104Z,1.93
2022-08-26T11:40:30.856Z,2.33
2022-08-26T11:42:42.750Z,2.90
2022-08-26T11:44:51.411Z,2.23
2022-08-26T11:47:03.373Z,2.70
2022-08-26T11:49:13.042Z,2.00
2022-08-26T11:51:23.514Z,2.20
2022-08-26T11:53:34.829Z,2.43
2022-08-26T11:55:45.476Z,2.03
2022-08-26T11:57:57.694Z,2.20
2022-08-26T12:00:08.393Z,2.10
2022-08-26T12:02:20.764Z,2.53
2022-08-26T12:04:31.838Z,2.40
2022-08-26T12:06:46.944Z,2.10
2022-08-26T12:08:58.042Z,2.20
2022-08-26T12:11:07.671Z,2.40
2022-08-26T12:13:26.255Z,2.50
2022-08-26T12:15:35.723Z,3.20
2022-08-26T12:17:44.976Z,2.10
2022-08-26T12:19:53.507Z,2.30
2022-08-26T12:22:04.063Z,2.10
2022-08-26T12:24:19.158Z,2.47
2022-08-26T12:26:29.628Z,2.20
2022-08-26T12:28:43.711Z,2.30
2022-08-26T12:31:02.042Z,2.20
2022-08-26T12:33:22.349Z,2.40
2022-08-26T12:35:31.870Z,2.30
2022-08-26T12:37:43.671Z,2.63
2022-08-26T12:39:54.211Z,2.57
2022-08-26T12:42:03.617Z,2.50
2022-08-26T12:44:26.982Z,2.10
2022-08-26T12:46:35.547Z,2.70
2022-08-26T12:48:46.388Z,2.33
2022-08-26T12:50:55.150Z,2.60
2022-08-26T12:53:04.720Z,2.63
2022-08-26T12:55:23.507Z,2.33
2022-08-26T12:57:35.179Z,2.67
2022-08-26T12:59:44.217Z,2.30
2022-08-26T13:01:53.669Z,2.20
2022-08-26T13:04:02.364Z,2.60
2022-08-26T13:06:15.942Z,3.00
2022-08-26T13:08:31.251Z,2.97
2022-08-26T13:10:41.883Z,2.47
2022-08-26T13:12:50.397Z,2.40
2022-08-26T13:14:59.963Z,2.43
2022-08-26T13:17:08.487Z,2.50
2022-08-26T13:19:19.515Z,2.40
2022-08-26T13:21:29.591Z,2.40
2022-08-26T13:23:44.508Z,2.50
2022-08-26T13:25:54.368Z,2.97
2022-08-26T13:28:02.916Z,2.60
2022-08-26T13:30:12.640Z,2.40
2022-08-26T13:32:23.384Z,2.43
2022-08-26T13:34:39.138Z,2.80
2022-08-26T13:36:47.740Z,2.70
2022-08-26T13:38:56.258Z,2.60
2022-08-26T13:41:06.226Z,2.60
2022-08-26T13:43:14.849Z,2.60
2022-08-26T13:45:23.372Z,2.60
2022-08-26T13:47:32.048Z,2.67
2022-08-26T13:49:40.609Z,2.70
2022-08-26T13:51:49.120Z,2.63
2022-08-26T13:53:57.939Z,2.40
2022-08-26T13:56:10.849Z,2.53
2022-08-26T13:58:19.844Z,2.67
2022-08-26T14:00:28.703Z,2.67
2022-08-26T14:02:37.852Z,2.60
2022-08-26T14:04:46.360Z,3.00
2022-08-26T14:06:54.959Z,3.00
2022-08-26T14:09:03.475Z,2.70
2022-08-26T14:11:14.048Z,2.67
2022-08-26T14:13:25.383Z,2.57
2022-08-26T14:15:34.709Z,2.40
2022-08-26T14:17:43.344Z,3.80
2022-08-26T14:19:52.525Z,2.90
2022-08-26T14:22:06.018Z,2.60
2022-08-26T14:24:14.594Z,2.70
2022-08-26T14:26:29.344Z,2.70
2022-08-26T14:28:38.372Z,2.70
2022-08-26T14:30:49.827Z,2.63
2022-08-26T14:33:00.393Z,3.83
2022-08-26T14:35:09.497Z,2.67
2022-08-26T14:37:20.485Z,3.20
2022-08-26T14:39:29.088Z,2.70
2022-08-26T14:41:40.826Z,2.50
2022-08-26T14:43:50.668Z,2.40
2022-08-26T14:45:59.192Z,2.47
2022-08-26T14:48:08.689Z,3.13
2022-08-26T14:50:18.564Z,2.57
2022-08-26T14:52:27.721Z,2.47
2022-08-26T14:54:35.229Z,2.73
2022-08-26T14:56:47.699Z,2.73
2022-08-26T14:58:56.222Z,2.33
2022-08-26T15:01:04.874Z,2.83
2022-08-26T15:05:27.723Z,2.30
2022-08-26T15:07:36.381Z,2.33
2022-08-26T15:09:44.895Z,2.50
2022-08-26T15:11:55.194Z,2.50
2022-08-26T15:14:03.763Z,2.93
2022-08-26T15:16:12.372Z,2.87
2022-08-26T15:18:22.228Z,6.50
2022-08-26T15:22:44.367Z,2.97
2022-08-26T15:24:53.749Z,3.20
2022-08-26T15:27:03.983Z,2.97
2022-08-26T15:29:12.526Z,2.80
2022-08-26T15:31:21.645Z,3.03
2022-08-26T15:33:30.203Z,4.43
2022-08-26T15:35:38.730Z,3.17
2022-08-26T15:39:59.943Z,3.23
2022-08-26T15:42:11.133Z,3.07
2022-08-26T15:44:19.974Z,2.80
2022-08-26T15:46:28.600Z,3.20
2022-08-26T15:48:37.126Z,3.23
2022-08-26T15:50:51.453Z,3.73
2022-08-26T15:53:01.484Z,3.80
2022-08-26T15:55:10.658Z,2.60
2022-08-26T15:57:20.623Z,3.07
2022-08-26T15:59:31.093Z,3.83
2022-08-26T16:01:39.809Z,3.20
2022-08-26T16:03:48.370Z,2.90
2022-08-26T16:05:56.988Z,3.27
2022-08-26T16:08:06.386Z,3.00
2022-08-26T16:10:14.926Z,3.20
2022-08-26T16:12:24.844Z,3.43
2022-08-26T16:14:33.321Z,2.90
2022-08-26T16:16:41.913Z,3.50
2022-08-26T16:18:50.482Z,4.93
2022-08-26T16:21:13.497Z,3.40
2022-08-26T16:23:22.999Z,3.63
2022-08-26T16:25:31.847Z,4.77
2022-08-26T16:27:41.762Z,4.13
2022-08-26T16:29:51.438Z,4.67
2022-08-26T16:31:59.998Z,5.27
2022-08-26T16:34:08.931Z,5.07
2022-08-26T16:36:17.703Z,4.87
2022-08-26T16:38:26.251Z,4.00
2022-08-26T16:40:36.249Z,3.97
2022-08-26T16:42:46.183Z,4.53
2022-08-26T16:44:54.717Z,4.23
2022-08-26T16:47:03.765Z,4.53
2022-08-26T16:49:12.662Z,3.93
2022-08-26T16:51:23.010Z,4.07
2022-08-26T16:53:31.531Z,7.27
2022-08-26T16:55:40.249Z,4.57
2022-08-26T16:57:50.514Z,4.60
2022-08-26T16:59:59.341Z,4.83
2022-08-26T17:02:10.639Z,4.77
2022-08-26T17:04:19.867Z,5.00
2022-08-26T17:06:28.398Z,5.03
2022-08-26T17:08:38.314Z,5.27
2022-08-26T17:10:46.795Z,5.03
2022-08-26T17:13:00.982Z,5.27
2022-08-26T17:15:10.274Z,4.90
2022-08-26T17:17:18.915Z,5.00
2022-08-26T17:19:27.835Z,5.00
2022-08-26T17:21:37.226Z,5.03
2022-08-26T17:23:46.108Z,5.50
2022-08-26T17:25:54.797Z,5.07
2022-08-26T17:28:04.843Z,5.10
2022-08-26T17:30:21.920Z,5.47
2022-08-26T17:32:30.515Z,5.20
2022-08-26T17:34:39.149Z,4.97
2022-08-26T17:36:47.718Z,4.77
2022-08-26T17:38:56.224Z,4.97
2022-08-26T17:41:04.765Z,5.17
2022-08-26T17:43:14.693Z,5.40
2022-08-26T17:45:26.078Z,5.03
2022-08-26T17:47:34.708Z,8.57
2022-08-26T17:49:43.204Z,5.50
2022-08-26T17:51:51.701Z,5.20
2022-08-26T17:54:00.328Z,4.83
2022-08-26T17:56:09.509Z,5.83
2022-08-26T17:58:23.425Z,6.57
2022-08-26T18:00:32.683Z,5.13
2022-08-26T18:02:41.703Z,8.00
2022-08-26T18:04:50.413Z,5.70
2022-08-26T18:06:58.983Z,5.17
2022-08-26T18:09:07.498Z,7.77
2022-08-26T18:11:17.227Z,5.30
2022-08-26T18:13:27.168Z,5.60
2022-08-26T18:15:35.712Z,7.90
2022-08-26T18:17:44.504Z,5.33
2022-08-26T18:19:53.067Z,5.50
2022-08-26T18:22:01.825Z,6.57
2022-08-26T18:24:14.040Z,5.97
2022-08-26T18:26:23.819Z,6.53
2022-08-26T18:28:33.779Z,6.87
2022-08-26T18:30:43.542Z,4.93
2022-08-26T18:32:52.932Z,6.00
2022-08-26T18:35:01.558Z,5.83
2022-08-26T18:39:19.490Z,6.47
2022-08-26T18:41:33.609Z,5.60
2022-08-26T18:43:43.529Z,6.97
2022-08-26T18:45:52.041Z,5.77
2022-08-26T18:48:00.638Z,5.63
2022-08-26T18:50:11.043Z,6.27
2022-08-26T18:52:19.728Z,6.20
2022-08-26T18:54:28.232Z,6.13
2022-08-26T18:56:37.422Z,6.53
2022-08-26T18:58:47.463Z,7.17
2022-08-26T19:00:55.965Z,6.33
2022-08-26T19:03:04.568Z,7.97
2022-08-26T19:05:16.835Z,6.87
2022-08-26T19:07:25.432Z,6.40
2022-08-26T19:09:33.987Z,6.00
2022-08-26T19:11:44.653Z,8.00
2022-08-26T19:13:55.389Z,6.37
2022-08-26T19:16:05.560Z,6.50
2022-08-26T19:18:17.848Z,6.90
2022-08-26T19:20:29.160Z,7.23
2022-08-26T19:22:37.958Z,7.93
2022-08-26T19:24:48.986Z,11.77
2022-08-26T19:26:59.711Z,8.63
2022-08-26T19:29:10.106Z,7.43
2022-08-26T19:31:18.752Z,7.33
2022-08-26T19:33:28.430Z,7.23
2022-08-26T19:35:38.317Z,7.90
2022-08-26T19:37:48.044Z,7.20
2022-08-26T19:39:56.888Z,9.17
2022-08-26T19:42:05.610Z,8.43
2022-08-26T19:44:37.875Z,7.83
2022-08-26T19:46:46.583Z,11.33
2022-08-26T19:48:55.919Z,7.27
2022-08-26T19:51:05.155Z,10.03
2022-08-26T19:53:14.066Z,7.17
2022-08-26T19:55:24.185Z,7.83
2022-08-26T19:57:32.860Z,8.40
2022-08-26T19:59:46.983Z,8.00
2022-08-26T20:02:00.788Z,8.00
2022-08-26T20:04:10.310Z,13.07
2022-08-26T20:06:20.151Z,9.57
2022-08-26T20:08:28.953Z,7.47
2022-08-26T20:10:38.284Z,8.03
2022-08-26T20:12:49.746Z,7.90
2022-08-26T20:14:59.618Z,8.47
2022-08-26T20:17:08.591Z,9.27
2022-08-26T20:19:37.476Z,8.70
2022-08-26T20:21:46.875Z,8.70
2022-08-26T20:23:56.515Z,8.00
2022-08-26T20:26:05.110Z,9.93
2022-08-26T20:28:16.963Z,8.13
2022-08-26T20:30:26.918Z,8.80
2022-08-26T20:32:35.742Z,8.57
2022-08-26T20:34:44.349Z,10.47
2022-08-26T20:36:53.260Z,12.20
2022-08-26T20:39:01.935Z,9.43
2022-08-26T20:41:10.703Z,9.93
2022-08-26T20:43:19.212Z,8.57
2022-08-26T20:45:29.235Z,8.67
2022-08-26T20:47:37.836Z,8.43
2022-08-26T20:49:46.408Z,10.33
2022-08-26T20:52:01.169Z,10.43
2022-08-26T20:54:09.959Z,11.10
2022-08-26T20:56:21.802Z,16.67
2022-08-26T20:58:30.610Z,11.00
2022-08-26T21:00:40.853Z,11.47
2022-08-26T21:02:49.491Z,12.10
2022-08-26T21:04:58.137Z,11.67
2022-08-26T21:07:06.798Z,13.50
2022-08-26T21:09:16.511Z,12.17
2022-08-26T21:11:25.821Z,13.57
2022-08-26T21:13:43.096Z,12.70
2022-08-26T21:15:59.196Z,12.03
2022-08-26T21:18:08.090Z,13.80
2022-08-26T21:20:16.771Z,14.33
2022-08-26T21:22:25.404Z,15.13
2022-08-26T21:24:33.981Z,16.13
2022-08-26T21:26:42.505Z,17.77
2022-08-26T21:28:51.455Z,19.60
2022-08-26T21:31:04.155Z,15.23
2022-08-26T21:33:17.823Z,14.83
2022-08-26T21:35:26.333Z,17.43
2022-08-26T21:37:34.865Z,13.57
2022-08-26T21:39:43.365Z,15.90
2022-08-26T21:41:51.907Z,18.63
2022-08-26T21:44:00.558Z,17.43
2022-08-26T21:46:14.447Z,23.40
2022-08-26T21:48:23.331Z,13.53
2022-08-26T21:50:38.765Z,14.43
2022-08-26T21:52:47.383Z,17.83
2022-08-26T21:54:58.650Z,16.93
2022-08-26T21:57:07.615Z,20.10
2022-08-26T21:59:17.458Z,18.60
2022-08-26T22:01:28.569Z,15.43
2022-08-26T22:03:46.605Z,25.97
2022-08-26T22:05:56.334Z,18.47
2022-08-26T22:08:04.967Z,16.70
2022-08-26T22:10:13.514Z,19.17
2022-08-26T22:12:22.027Z,18.03
2022-08-26T22:14:31.114Z,15.53
2022-08-26T22:16:41.126Z,15.30
2022-08-26T22:18:58.601Z,20.93
2022-08-26T22:21:08.430Z,18.27
2022-08-26T22:23:17.067Z,17.87
2022-08-26T22:25:25.554Z,14.73
2022-08-26T22:27:34.081Z,17.53
2022-08-26T22:29:49.960Z,20.83
2022-08-26T22:31:59.999Z,20.00
2022-08-26T22:34:11.353Z,16.03
2022-08-26T22:36:20.500Z,14.93
2022-08-26T22:38:29.074Z,21.30
2022-08-26T22:40:37.963Z,17.93
2022-08-26T22:42:55.614Z,18.17
2022-08-26T22:45:07.615Z,19.43
2022-08-26T22:47:18.497Z,14.77
2022-08-26T22:49:27.070Z,17.17
2022-08-26T22:51:35.580Z,15.93
2022-08-26T22:53:44.239Z,16.47
2022-08-26T22:55:52.738Z,15.60
2022-08-26T22:58:01.254Z,17.00
2022-08-26T23:00:12.382Z,22.43
2022-08-26T23:02:22.484Z,22.60
2022-08-26T23:04:31.204Z,22.07
2022-08-26T23:06:47.522Z,17.67
2022-08-26T23:08:56.334Z,23.02
2022-08-26T23:11:05.479Z,16.93
2022-08-26T23:13:14.884Z,16.23
2022-08-26T23:15:23.843Z,19.33
2022-08-26T23:17:35.310Z,17.43
2022-08-26T23:19:43.953Z,15.70
2022-08-26T23:21:52.632Z,15.97
2022-08-26T23:24:02.337Z,17.73
2022-08-26T23:26:12.627Z,20.20
2022-08-26T23:28:23.055Z,19.60
2022-08-26T23:30:33.144Z,14.30
2022-08-26T23:32:43.273Z,15.57
2022-08-26T23:34:58.914Z,16.20
2022-08-26T23:37:07.754Z,15.77
2022-08-26T23:39:16.657Z,20.47
2022-08-26T23:41:25.435Z,16.43
2022-08-26T23:43:34.191Z,16.67
2022-08-26T23:45:43.009Z,16.43
2022-08-26T23:47:52.993Z,17.17
2022-08-26T23:50:01.504Z,17.63
2022-08-26T23:52:29.288Z,19.57
2022-08-26T23:54:37.780Z,18.70
2022-08-26T23:56:46.284Z,16.77
2022-08-26T23:58:54.817Z,19.43
